Terminal Aerodrome Forecast
Issued by NWS Buffalo, NY

Home | Current Version | Previous Version | Text Only | Print | Product List | Glossary On
Versions: 1 2 3 4 5 6 7 8 9 10 11 12 13 14 15 16 17 18 19 20 21 22 23 24
555
FTUS41 KBUF 310256 AAA
TAFART
TAF AMD
KART 310256Z 3103/3124 06006KT P6SM SCT100
     FM310700 08004KT P6SM BKN100
     FM311000 09005KT P6SM VCSH BKN060
     FM311200 09006KT P6SM VCSH OVC040
     FM311500 08008KT 6SM -SHRA OVC020
     FM311600 09009KT 6SM -SHRA VCTS OVC015CB=

USA.gov is the U.S. government's official web portal to all federal, state and local government web resources and services.